createdAt,value
2023-01-04T00:02:05.554Z,19.60
2023-01-04T00:04:32.239Z,19.60
2023-01-04T00:06:58.938Z,19.60
2023-01-04T00:09:31.852Z,19.60
2023-01-04T00:11:58.549Z,19.60
2023-01-04T00:14:25.409Z,19.50
2023-01-04T00:16:52.168Z,19.60
2023-01-04T00:19:18.821Z,19.60
2023-01-04T00:21:45.537Z,19.60
2023-01-04T00:24:17.734Z,19.50
2023-01-04T00:26:51.212Z,19.60
2023-01-04T00:29:17.935Z,19.60
2023-01-04T00:31:47.859Z,19.50
2023-01-04T00:34:20.730Z,19.50
2023-01-04T00:36:53.671Z,19.50
2023-01-04T00:39:20.363Z,19.50
2023-01-04T00:41:59.434Z,19.50
2023-01-04T00:44:27.872Z,19.50
2023-01-04T00:46:54.661Z,19.50
2023-01-04T00:49:21.381Z,19.50
2023-01-04T00:51:48.053Z,19.50
2023-01-04T00:54:14.995Z,19.50
2023-01-04T00:56:41.763Z,19.50
2023-01-04T00:59:08.481Z,19.50
2023-01-04T01:01:35.455Z,19.50
2023-01-04T01:04:02.922Z,19.40
2023-01-04T01:06:29.876Z,19.50
2023-01-04T01:08:56.872Z,19.40
2023-01-04T01:11:23.684Z,19.50
2023-01-04T01:13:56.916Z,19.50
2023-01-04T01:16:51.977Z,19.50
2023-01-04T01:19:10.472Z,19.40
2023-01-04T01:21:38.097Z,19.50
2023-01-04T01:24:05.232Z,19.40
2023-01-04T01:26:38.055Z,19.50
2023-01-04T01:29:04.758Z,19.40
2023-01-04T01:31:37.668Z,19.40
2023-01-04T01:34:04.772Z,19.40
2023-01-04T01:36:31.595Z,19.50
2023-01-04T01:38:58.319Z,19.40
2023-01-04T01:41:25.801Z,19.40
2023-01-04T01:43:59.646Z,19.40
2023-01-04T01:46:31.567Z,19.40
2023-01-04T01:49:02.940Z,19.40
2023-01-04T01:51:29.638Z,19.40
2023-01-04T01:54:00.115Z,19.40
2023-01-04T01:56:27.085Z,19.30
2023-01-04T01:58:54.068Z,19.40
2023-01-04T02:01:21.163Z,19.40
2023-01-04T02:03:48.628Z,19.40
2023-01-04T02:06:35.324Z,19.40
2023-01-04T02:09:02.309Z,19.30
2023-01-04T02:11:29.077Z,19.30
2023-01-04T02:14:15.049Z,19.30
2023-01-04T02:17:00.666Z,19.40
2023-01-04T02:19:33.435Z,19.40
2023-01-04T02:22:09.276Z,19.40
2023-01-04T02:24:43.103Z,19.30
2023-01-04T02:27:12.807Z,19.40
2023-01-04T02:29:59.280Z,19.40
2023-01-04T02:32:25.945Z,19.30
2023-01-04T02:34:58.514Z,19.30
2023-01-04T02:37:25.774Z,19.30
2023-01-04T02:40:01.705Z,19.40
2023-01-04T02:42:48.358Z,19.40
2023-01-04T02:45:15.726Z,19.40
2023-01-04T02:48:21.469Z,19.40
2023-01-04T02:50:58.083Z,19.40
2023-01-04T02:53:26.383Z,19.30
2023-01-04T02:56:05.746Z,19.30
2023-01-04T02:58:36.328Z,19.40
2023-01-04T03:01:21.617Z,19.30
2023-01-04T03:04:10.257Z,19.30
2023-01-04T03:06:40.918Z,19.30
2023-01-04T03:09:27.528Z,19.30
2023-01-04T03:12:17.578Z,19.30
2023-01-04T03:14:45.920Z,19.30
2023-01-04T03:17:13.363Z,19.30
2023-01-04T03:19:52.286Z,19.30
2023-01-04T03:22:38.749Z,19.30
2023-01-04T03:25:40.805Z,19.30
2023-01-04T03:28:26.217Z,19.30
2023-01-04T03:31:20.577Z,19.30
2023-01-04T03:34:06.270Z,19.30
2023-01-04T03:36:54.240Z,19.30
2023-01-04T03:39:46.736Z,19.30
2023-01-04T03:42:34.134Z,19.30
2023-01-04T03:45:25.242Z,19.30
2023-01-04T03:48:21.929Z,19.30
2023-01-04T03:50:50.537Z,19.30
2023-01-04T03:53:17.224Z,19.30
2023-01-04T03:55:43.901Z,19.30
2023-01-04T03:58:10.682Z,19.30
2023-01-04T04:00:37.505Z,19.30
2023-01-04T04:03:07.477Z,19.30
2023-01-04T04:05:54.596Z,19.30
2023-01-04T04:08:30.388Z,19.30
2023-01-04T04:11:23.114Z,19.30
2023-01-04T04:13:50.106Z,19.30
2023-01-04T04:16:16.980Z,19.30
2023-01-04T04:18:43.750Z,19.30
2023-01-04T04:21:10.451Z,19.30
2023-01-04T04:23:40.275Z,19.30
2023-01-04T04:26:13.220Z,19.30
2023-01-04T04:28:39.919Z,19.30
2023-01-04T04:31:06.895Z,19.30
2023-01-04T04:33:33.829Z,19.30
2023-01-04T04:36:00.696Z,19.30
2023-01-04T04:38:27.346Z,19.30
2023-01-04T04:41:13.713Z,19.30
2023-01-04T04:43:40.396Z,19.30
2023-01-04T04:46:07.223Z,19.30
2023-01-04T04:48:40.758Z,19.30
2023-01-04T04:51:07.480Z,19.30
2023-01-04T04:53:34.176Z,19.30
2023-01-04T04:56:00.882Z,19.30
2023-01-04T04:58:27.607Z,19.30
2023-01-04T05:00:54.350Z,19.30
2023-01-04T05:03:21.117Z,19.30
2023-01-04T05:05:50.823Z,19.30
2023-01-04T05:08:19.710Z,19.30
2023-01-04T05:10:51.772Z,19.30
2023-01-04T05:13:30.507Z,19.30
2023-01-04T05:16:04.481Z,19.30
2023-01-04T05:18:46.245Z,19.30
2023-01-04T05:21:19.948Z,19.30
2023-01-04T05:23:56.795Z,19.30
2023-01-04T05:26:26.684Z,19.30
2023-01-04T05:28:54.317Z,19.30
2023-01-04T05:31:26.657Z,19.30
2023-01-04T05:34:03.789Z,19.30
2023-01-04T05:36:33.896Z,19.30
2023-01-04T05:39:06.601Z,19.30
2023-01-04T05:42:01.252Z,19.30
2023-01-04T05:44:33.761Z,19.30
2023-01-04T05:47:14.822Z,19.30
2023-01-04T05:49:57.103Z,19.30
2023-01-04T05:52:29.757Z,19.30
2023-01-04T05:55:02.592Z,19.30
2023-01-04T05:57:39.553Z,19.30
2023-01-04T06:00:18.241Z,19.30
2023-01-04T06:02:55.801Z,19.30
2023-01-04T06:05:30.211Z,19.30
2023-01-04T06:08:13.253Z,19.30
2023-01-04T06:10:40.376Z,19.30
2023-01-04T06:13:46.189Z,19.20
2023-01-04T06:16:33.969Z,19.20
2023-01-04T06:21:49.467Z,19.20
2023-01-04T06:24:23.892Z,19.20
2023-01-04T06:27:04.680Z,19.20
2023-01-04T06:32:20.926Z,19.30
2023-01-04T06:34:58.409Z,19.30
2023-01-04T06:40:30.655Z,19.30
2023-01-04T06:43:01.442Z,19.20
2023-01-04T06:45:33.407Z,19.20
2023-01-04T06:50:56.125Z,19.30
2023-01-04T06:53:27.424Z,19.20
2023-01-04T06:55:59.290Z,19.30
2023-01-04T07:01:24.117Z,19.20
2023-01-04T07:03:53.925Z,19.30
2023-01-04T07:06:26.960Z,19.30
2023-01-04T07:08:54.855Z,19.30
2023-01-04T07:11:21.557Z,19.30
2023-01-04T07:13:48.251Z,19.30
2023-01-04T07:16:14.984Z,19.30
2023-01-04T07:18:41.993Z,19.20
2023-01-04T07:21:08.773Z,19.30
2023-01-04T07:23:35.543Z,19.30
2023-01-04T07:26:03.867Z,19.20
2023-01-04T07:28:49.528Z,19.30
2023-01-04T07:31:16.458Z,19.20
2023-01-04T07:33:43.180Z,19.20
2023-01-04T07:36:15.991Z,19.20
2023-01-04T07:38:45.970Z,19.20
2023-01-04T07:41:12.701Z,19.20
2023-01-04T07:43:39.440Z,19.20
2023-01-04T07:46:06.395Z,19.10
2023-01-04T07:48:33.138Z,19.10
2023-01-04T07:50:59.873Z,19.10
2023-01-04T07:53:26.574Z,19.10
2023-01-04T07:55:59.443Z,19.10
2023-01-04T07:58:26.587Z,19.10
2023-01-04T08:00:53.275Z,19.10
2023-01-04T08:03:19.935Z,19.10
2023-01-04T08:05:46.954Z,19.10
2023-01-04T08:08:13.852Z,19.00
2023-01-04T08:10:40.564Z,19.00
2023-01-04T08:13:07.346Z,19.00
2023-01-04T08:15:34.152Z,19.10
2023-01-04T08:18:01.448Z,19.00
2023-01-04T08:20:28.160Z,19.10
2023-01-04T08:22:54.930Z,19.10
2023-01-04T08:25:21.596Z,19.00
2023-01-04T08:27:48.750Z,18.90
2023-01-04T08:30:15.563Z,18.80
2023-01-04T08:32:42.226Z,18.70
2023-01-04T08:35:08.947Z,18.60
2023-01-04T08:37:35.644Z,18.50
2023-01-04T08:40:02.448Z,18.40
2023-01-04T08:42:31.724Z,18.30
2023-01-04T08:45:01.385Z,18.30
2023-01-04T08:47:31.832Z,18.20
2023-01-04T08:49:58.743Z,18.20
2023-01-04T08:52:25.436Z,18.10
2023-01-04T08:54:52.140Z,18.10
2023-01-04T08:57:18.845Z,18.10
2023-01-04T08:59:45.572Z,18.10
2023-01-04T09:02:25.698Z,18.10
2023-01-04T09:04:52.761Z,18.20
2023-01-04T09:07:20.839Z,18.20
2023-01-04T09:09:47.893Z,18.30
2023-01-04T09:12:14.562Z,18.30
2023-01-04T09:14:41.294Z,18.40
2023-01-04T09:17:08.060Z,18.40
2023-01-04T09:19:34.821Z,18.50
2023-01-04T09:22:01.719Z,18.50
2023-01-04T09:24:28.563Z,18.50
2023-01-04T09:26:55.255Z,18.60
2023-01-04T09:29:22.137Z,18.60
2023-01-04T09:31:48.946Z,18.60
2023-01-04T09:34:17.664Z,18.70
2023-01-04T09:36:45.460Z,18.70
2023-01-04T09:39:21.011Z,18.70
2023-01-04T09:41:52.751Z,18.70
2023-01-04T09:45:11.926Z,18.70
2023-01-04T09:47:30.843Z,18.80
2023-01-04T09:50:11.799Z,18.80
2023-01-04T09:52:50.809Z,18.80
2023-01-04T09:55:39.267Z,18.80
2023-01-04T09:58:27.644Z,18.80
2023-01-04T10:01:05.930Z,18.80
2023-01-04T10:03:36.589Z,18.80
2023-01-04T10:06:03.369Z,18.80
2023-01-04T10:08:31.579Z,18.80
2023-01-04T10:11:17.199Z,18.80
2023-01-04T10:13:50.099Z,18.90
2023-01-04T10:17:01.825Z,18.90
2023-01-04T10:22:20.634Z,18.90
2023-01-04T10:24:50.396Z,18.90
2023-01-04T10:27:42.356Z,18.90
2023-01-04T10:30:28.417Z,18.90
2023-01-04T10:33:08.676Z,18.90
2023-01-04T10:35:36.291Z,18.90
2023-01-04T10:38:04.346Z,18.90
2023-01-04T10:40:33.797Z,18.80
2023-01-04T10:43:05.455Z,18.80
2023-01-04T10:45:34.814Z,18.90
2023-01-04T10:48:10.195Z,18.90
2023-01-04T10:50:40.174Z,18.90
2023-01-04T10:53:27.394Z,18.90
2023-01-04T10:56:25.750Z,18.90
2023-01-04T10:58:43.897Z,18.90
2023-01-04T11:01:12.932Z,18.90
2023-01-04T11:03:42.846Z,18.90
2023-01-04T11:06:16.575Z,18.90
2023-01-04T11:08:45.775Z,18.90
2023-01-04T11:11:30.262Z,18.90
2023-01-04T11:13:56.946Z,18.90
2023-01-04T11:16:23.666Z,18.90
2023-01-04T11:18:50.446Z,18.90
2023-01-04T11:21:17.451Z,19.00
2023-01-04T11:23:44.111Z,18.90
2023-01-04T11:26:20.094Z,19.00
2023-01-04T11:28:51.785Z,18.90
2023-01-04T11:31:24.061Z,19.00
2023-01-04T11:33:55.209Z,19.00
2023-01-04T11:36:32.150Z,19.00
2023-01-04T11:38:59.997Z,18.90
2023-01-04T11:41:26.897Z,18.90
2023-01-04T11:43:58.052Z,19.00
2023-01-04T11:46:25.542Z,19.00
2023-01-04T11:48:52.631Z,19.00
2023-01-04T11:51:19.383Z,19.00
2023-01-04T11:53:46.751Z,19.00
2023-01-04T11:56:18.060Z,19.00
2023-01-04T11:58:47.119Z,19.00
2023-01-04T12:01:20.930Z,19.00
2023-01-04T12:03:47.749Z,19.00
2023-01-04T12:06:20.663Z,19.00
2023-01-04T12:08:47.370Z,19.00
2023-01-04T12:11:20.973Z,19.00
2023-01-04T12:13:47.940Z,19.00
2023-01-04T12:16:14.667Z,19.00
2023-01-04T12:18:42.011Z,19.00
2023-01-04T12:21:17.230Z,19.00
2023-01-04T12:23:43.941Z,19.00
2023-01-04T12:26:12.187Z,19.00
2023-01-04T12:28:49.756Z,19.00
2023-01-04T12:31:24.634Z,19.10
2023-01-04T12:33:53.006Z,19.00
2023-01-04T12:36:40.101Z,19.00
2023-01-04T12:39:30.059Z,19.10
2023-01-04T12:42:19.343Z,19.10
2023-01-04T12:44:52.757Z,19.10
2023-01-04T12:47:42.104Z,19.10
2023-01-04T12:50:17.085Z,19.10
2023-01-04T12:53:30.664Z,19.10
2023-01-04T12:56:08.121Z,19.10
2023-01-04T12:59:24.290Z,19.10
2023-01-04T13:01:40.584Z,19.10
2023-01-04T13:04:32.031Z,19.10
2023-01-04T13:07:48.492Z,19.10
2023-01-04T13:10:41.388Z,19.00
2023-01-04T13:13:58.051Z,19.00
2023-01-04T13:16:42.174Z,19.10
2023-01-04T13:19:24.043Z,19.00
2023-01-04T13:22:28.672Z,19.00
2023-01-04T13:24:58.259Z,19.00
2023-01-04T13:27:30.019Z,19.00
2023-01-04T13:30:04.510Z,19.00
2023-01-04T13:33:07.568Z,19.00
2023-01-04T13:35:44.791Z,19.00
2023-01-04T13:38:36.050Z,19.10
2023-01-04T13:41:15.340Z,19.10
2023-01-04T13:44:19.896Z,19.10
2023-01-04T13:46:53.472Z,19.10
2023-01-04T13:49:30.984Z,19.10
2023-01-04T13:52:56.429Z,19.10
2023-01-04T13:55:40.375Z,19.10
2023-01-04T13:58:32.965Z,19.10
2023-01-04T14:01:25.878Z,19.10
2023-01-04T14:04:02.494Z,19.00
2023-01-04T14:06:33.202Z,19.10
2023-01-04T14:09:01.616Z,19.00
2023-01-04T14:11:52.264Z,19.10
2023-01-04T14:14:33.736Z,19.10
2023-01-04T14:17:13.702Z,19.00
2023-01-04T14:19:58.084Z,19.10
2023-01-04T14:22:40.012Z,19.00
2023-01-04T14:28:24.442Z,19.00
2023-01-04T14:30:59.165Z,19.00
2023-01-04T14:33:46.044Z,19.10
2023-01-04T14:36:31.063Z,19.00
2023-01-04T14:39:09.619Z,19.10
2023-01-04T14:41:44.582Z,19.10
2023-01-04T14:44:22.564Z,19.10
2023-01-04T14:46:57.340Z,19.10
2023-01-04T14:49:33.352Z,19.10
2023-01-04T14:52:08.895Z,19.10
2023-01-04T14:54:50.415Z,19.10
2023-01-04T14:57:24.955Z,19.10
2023-01-04T14:59:57.788Z,19.10
2023-01-04T15:02:33.197Z,19.10
2023-01-04T15:05:13.847Z,19.10
2023-01-04T15:07:49.073Z,19.10
2023-01-04T15:10:27.127Z,19.10
2023-01-04T15:13:08.430Z,19.10
2023-01-04T15:15:42.056Z,19.10
2023-01-04T15:18:14.180Z,19.10
2023-01-04T15:20:49.079Z,19.10
2023-01-04T15:23:21.291Z,19.10
2023-01-04T15:25:57.185Z,19.10
2023-01-04T15:28:27.721Z,19.10
2023-01-04T15:31:05.448Z,19.10
2023-01-04T15:33:37.705Z,19.00
2023-01-04T15:36:17.365Z,19.00
2023-01-04T15:38:54.771Z,19.10
2023-01-04T15:41:50.699Z,19.10
2023-01-04T15:44:20.823Z,19.10
2023-01-04T15:47:08.468Z,19.30
2023-01-04T15:49:39.279Z,19.40
2023-01-04T15:52:05.870Z,19.60
2023-01-04T15:54:32.535Z,19.70
2023-01-04T15:56:59.241Z,19.90
2023-01-04T15:59:26.135Z,20.00
2023-01-04T16:01:52.866Z,20.00
2023-01-04T16:04:19.574Z,19.90
2023-01-04T16:06:46.453Z,19.90
2023-01-04T16:09:13.028Z,19.80
2023-01-04T16:12:02.628Z,19.70
2023-01-04T16:14:29.298Z,19.60
2023-01-04T16:16:56.252Z,19.60
2023-01-04T16:19:25.093Z,19.50
2023-01-04T16:21:51.835Z,19.50
2023-01-04T16:24:45.316Z,19.50
2023-01-04T16:27:05.133Z,19.40
2023-01-04T16:29:31.859Z,19.40
2023-01-04T16:31:58.978Z,19.40
2023-01-04T16:34:25.752Z,19.40
2023-01-04T16:36:52.373Z,19.40
2023-01-04T16:39:19.640Z,19.30
2023-01-04T16:41:46.401Z,19.30
2023-01-04T16:44:13.777Z,19.30
2023-01-04T16:46:40.589Z,19.30
2023-01-04T16:49:09.779Z,19.30
2023-01-04T16:51:36.840Z,19.30
2023-01-04T16:54:04.221Z,19.30
2023-01-04T16:56:31.081Z,19.30
2023-01-04T16:58:57.679Z,19.30
2023-01-04T17:01:25.211Z,19.20
2023-01-04T17:03:54.401Z,19.30
2023-01-04T17:06:21.799Z,19.20
2023-01-04T17:08:48.863Z,19.30
2023-01-04T17:14:03.613Z,19.20
2023-01-04T17:16:34.698Z,19.20
2023-01-04T17:19:01.786Z,19.20
2023-01-04T17:21:36.096Z,19.20
2023-01-04T17:24:02.963Z,19.20
2023-01-04T17:26:30.178Z,19.20
2023-01-04T17:28:57.365Z,19.20
2023-01-04T17:31:27.680Z,19.30
2023-01-04T17:33:54.459Z,19.20
2023-01-04T17:36:21.078Z,19.20
2023-01-04T17:38:47.720Z,19.20
2023-01-04T17:41:14.394Z,19.20
2023-01-04T17:43:41.267Z,19.20
2023-01-04T17:46:08.743Z,19.20
2023-01-04T17:48:35.642Z,19.10
2023-01-04T17:51:06.397Z,19.10
2023-01-04T17:53:33.973Z,19.20
2023-01-04T17:56:04.123Z,19.20
2023-01-04T17:58:30.786Z,19.20
2023-01-04T18:00:57.366Z,19.10
2023-01-04T18:03:24.051Z,19.10
2023-01-04T18:05:52.261Z,19.20
2023-01-04T18:08:25.759Z,19.20
2023-01-04T18:11:08.455Z,19.20
2023-01-04T18:13:35.568Z,19.20
2023-01-04T18:16:23.449Z,19.20
2023-01-04T18:18:49.107Z,19.20
2023-01-04T18:21:28.018Z,19.20
2023-01-04T18:24:34.177Z,19.20
2023-01-04T18:27:19.191Z,19.10
2023-01-04T18:29:28.691Z,19.20
2023-01-04T18:31:56.499Z,19.20
2023-01-04T18:34:26.385Z,19.20
2023-01-04T18:36:56.263Z,19.10
2023-01-04T18:39:22.883Z,19.10
2023-01-04T18:41:49.505Z,19.20
2023-01-04T18:44:32.680Z,19.10
2023-01-04T18:47:00.423Z,19.20
2023-01-04T18:49:27.003Z,19.10
2023-01-04T18:51:53.618Z,19.10
2023-01-04T18:54:21.593Z,19.20
2023-01-04T18:56:48.638Z,19.20
2023-01-04T18:59:17.421Z,19.10
2023-01-04T19:01:45.634Z,19.20
2023-01-04T19:04:12.788Z,19.10
2023-01-04T19:06:40.033Z,19.20
2023-01-04T19:09:07.310Z,19.10
2023-01-04T19:11:34.085Z,19.10
2023-01-04T19:14:00.859Z,19.20
2023-01-04T19:16:31.049Z,19.20
2023-01-04T19:18:58.693Z,19.20
2023-01-04T19:21:25.425Z,19.20
2023-01-04T19:23:52.732Z,19.20
2023-01-04T19:26:19.773Z,19.10
2023-01-04T19:28:46.394Z,19.10
2023-01-04T19:31:13.132Z,19.20
2023-01-04T19:33:39.776Z,19.20
2023-01-04T19:36:07.118Z,19.10
2023-01-04T19:38:33.773Z,19.10
2023-01-04T19:41:00.550Z,19.10
2023-01-04T19:43:27.190Z,19.10
2023-01-04T19:45:53.879Z,19.10
2023-01-04T19:48:20.487Z,19.10
2023-01-04T19:50:47.158Z,19.10
2023-01-04T19:53:14.356Z,19.10
2023-01-04T19:55:41.030Z,19.10
2023-01-04T19:58:07.816Z,19.10
2023-01-04T20:00:34.413Z,19.10
2023-01-04T20:03:01.366Z,19.10
2023-01-04T20:05:28.183Z,19.10
2023-01-04T20:07:54.763Z,19.10
2023-01-04T20:10:21.334Z,19.10
2023-01-04T20:12:47.893Z,19.10
2023-01-04T20:15:14.604Z,19.10
2023-01-04T20:17:41.270Z,19.10
2023-01-04T20:20:08.036Z,19.10
2023-01-04T20:22:34.681Z,19.10
2023-01-04T20:25:01.298Z,19.10
2023-01-04T20:27:27.949Z,19.10
2023-01-04T20:29:54.698Z,19.10
2023-01-04T20:32:21.937Z,19.20
2023-01-04T20:34:48.522Z,19.20
2023-01-04T20:37:15.209Z,19.20
2023-01-04T20:39:41.862Z,19.20
2023-01-04T20:42:28.162Z,19.10
2023-01-04T20:44:54.761Z,19.10
2023-01-04T20:47:21.365Z,19.20
2023-01-04T20:49:48.683Z,19.10
2023-01-04T20:52:15.298Z,19.10
2023-01-04T20:54:41.871Z,19.10
2023-01-04T20:57:08.553Z,19.10
2023-01-04T20:59:35.196Z,19.10
2023-01-04T21:02:03.392Z,19.10
2023-01-04T21:04:31.903Z,19.10
2023-01-04T21:06:58.563Z,19.00
2023-01-04T21:09:25.215Z,19.10
2023-01-04T21:11:51.875Z,19.10
2023-01-04T21:14:18.479Z,19.10
2023-01-04T21:16:45.411Z,19.10
2023-01-04T21:19:12.051Z,19.10
2023-01-04T21:21:38.825Z,19.10
2023-01-04T21:24:05.488Z,19.10
2023-01-04T21:26:32.102Z,19.10
2023-01-04T21:28:58.810Z,19.10
2023-01-04T21:31:25.683Z,19.10
2023-01-04T21:33:52.621Z,19.10
2023-01-04T21:36:20.183Z,19.00
2023-01-04T21:38:50.651Z,19.10
2023-01-04T21:41:18.696Z,19.10
2023-01-04T21:43:45.393Z,19.10
2023-01-04T21:46:13.434Z,19.10
2023-01-04T21:48:40.511Z,19.10
2023-01-04T21:51:07.401Z,19.10
2023-01-04T21:53:34.373Z,19.10
2023-01-04T21:56:01.483Z,19.00
2023-01-04T21:58:28.290Z,19.10
2023-01-04T22:00:55.063Z,19.10
2023-01-04T22:03:21.638Z,19.00
2023-01-04T22:05:48.297Z,19.10
2023-01-04T22:08:14.874Z,19.10
2023-01-04T22:10:41.513Z,19.10
2023-01-04T22:13:08.622Z,19.10
2023-01-04T22:15:39.295Z,19.10
2023-01-04T22:18:06.140Z,19.10
2023-01-04T22:20:32.910Z,19.10
2023-01-04T22:22:59.517Z,19.10
2023-01-04T22:25:26.126Z,19.10
2023-01-04T22:27:52.733Z,19.10
2023-01-04T22:30:19.361Z,19.10
2023-01-04T22:32:46.023Z,19.10
2023-01-04T22:35:12.624Z,19.10
2023-01-04T22:37:39.263Z,19.10
2023-01-04T22:40:06.344Z,19.10
2023-01-04T22:42:32.967Z,19.10
2023-01-04T22:44:59.551Z,19.10
2023-01-04T22:47:26.116Z,19.00
2023-01-04T22:49:52.727Z,19.10
2023-01-04T22:52:19.399Z,19.10
2023-01-04T22:54:47.488Z,19.10
2023-01-04T22:57:14.071Z,19.10
2023-01-04T22:59:40.778Z,19.10
2023-01-04T23:02:07.973Z,19.10
2023-01-04T23:04:34.569Z,19.10
2023-01-04T23:07:01.146Z,19.10
2023-01-04T23:09:27.812Z,19.10
2023-01-04T23:11:54.511Z,19.10
2023-01-04T23:14:21.089Z,19.00
2023-01-04T23:16:47.782Z,19.00
2023-01-04T23:19:14.675Z,19.10
2023-01-04T23:21:41.392Z,19.10
2023-01-04T23:24:08.136Z,19.00
2023-01-04T23:26:34.733Z,19.00
2023-01-04T23:29:01.369Z,19.00
2023-01-04T23:31:29.444Z,19.00
2023-01-04T23:33:57.007Z,19.00
2023-01-04T23:36:24.465Z,19.00
2023-01-04T23:38:58.019Z,19.00
2023-01-04T23:41:44.354Z,19.10
2023-01-04T23:44:32.459Z,19.00
2023-01-04T23:47:08.167Z,19.00
2023-01-04T23:49:35.428Z,19.00
2023-01-04T23:52:02.123Z,19.00
2023-01-04T23:54:28.739Z,19.10
2023-01-04T23:56:55.437Z,19.00
2023-01-04T23:59:22.605Z,19.00
